sensor_id;sensor_type;location;lat;lon;timestamp;P1;durP1;ratioP1;P2;durP2;ratioP2
10617;SDS011;5356;43.526;26.534;2024-03-22T00:01:46;9.98;;;5.90;;
10617;SDS011;5356;43.526;26.534;2024-03-22T00:04:12;10.75;;;5.63;;
10617;SDS011;5356;43.526;26.534;2024-03-22T00:06:38;9.55;;;5.65;;
10617;SDS011;5356;43.526;26.534;2024-03-22T00:09:06;9.88;;;6.18;;
10617;SDS011;5356;43.526;26.534;2024-03-22T00:11:32;11.60;;;5.85;;
10617;SDS011;5356;43.526;26.534;2024-03-22T00:13:57;10.65;;;5.80;;
10617;SDS011;5356;43.526;26.534;2024-03-22T00:16:23;9.73;;;6.47;;
10617;SDS011;5356;43.526;26.534;2024-03-22T00:18:49;9.25;;;5.15;;
10617;SDS011;5356;43.526;26.534;2024-03-22T00:21:15;11.82;;;6.45;;
10617;SDS011;5356;43.526;26.534;2024-03-22T00:23:41;11.32;;;5.80;;
10617;SDS011;5356;43.526;26.534;2024-03-22T00:26:07;8.90;;;5.57;;
10617;SDS011;5356;43.526;26.534;2024-03-22T00:28:33;11.00;;;5.43;;
10617;SDS011;5356;43.526;26.534;2024-03-22T00:30:58;11.63;;;5.88;;
10617;SDS011;5356;43.526;26.534;2024-03-22T00:33:24;11.23;;;7.22;;
10617;SDS011;5356;43.526;26.534;2024-03-22T00:35:50;11.88;;;6.93;;
10617;SDS011;5356;43.526;26.534;2024-03-22T00:38:15;11.98;;;7.05;;
10617;SDS011;5356;43.526;26.534;2024-03-22T00:40:41;12.77;;;8.05;;
10617;SDS011;5356;43.526;26.534;2024-03-22T00:43:07;14.27;;;8.48;;
10617;SDS011;5356;43.526;26.534;2024-03-22T00:45:32;13.98;;;7.97;;
10617;SDS011;5356;43.526;26.534;2024-03-22T00:47:58;18.10;;;8.57;;
10617;SDS011;5356;43.526;26.534;2024-03-22T00:50:23;15.20;;;8.70;;
10617;SDS011;5356;43.526;26.534;2024-03-22T00:52:52;15.35;;;8.20;;
10617;SDS011;5356;43.526;26.534;2024-03-22T00:55:19;17.20;;;8.20;;
10617;SDS011;5356;43.526;26.534;2024-03-22T00:57:45;13.75;;;8.15;;
10617;SDS011;5356;43.526;26.534;2024-03-22T01:00:10;13.18;;;8.20;;
10617;SDS011;5356;43.526;26.534;2024-03-22T01:02:36;16.90;;;8.32;;
10617;SDS011;5356;43.526;26.534;2024-03-22T01:05:02;14.82;;;7.18;;
10617;SDS011;5356;43.526;26.534;2024-03-22T01:07:28;19.90;;;8.93;;
10617;SDS011;5356;43.526;26.534;2024-03-22T01:09:53;11.38;;;6.95;;
10617;SDS011;5356;43.526;26.534;2024-03-22T01:12:18;13.10;;;7.45;;
10617;SDS011;5356;43.526;26.534;2024-03-22T01:14:44;11.07;;;7.03;;
10617;SDS011;5356;43.526;26.534;2024-03-22T01:17:09;12.80;;;6.43;;
10617;SDS011;5356;43.526;26.534;2024-03-22T01:19:35;11.20;;;6.70;;
10617;SDS011;5356;43.526;26.534;2024-03-22T01:22:00;13.55;;;7.72;;
10617;SDS011;5356;43.526;26.534;2024-03-22T01:24:26;11.88;;;7.32;;
10617;SDS011;5356;43.526;26.534;2024-03-22T01:26:51;11.98;;;7.20;;
10617;SDS011;5356;43.526;26.534;2024-03-22T01:29:17;12.77;;;7.05;;
10617;SDS011;5356;43.526;26.534;2024-03-22T01:31:42;13.18;;;7.40;;
10617;SDS011;5356;43.526;26.534;2024-03-22T01:34:08;12.70;;;6.78;;
10617;SDS011;5356;43.526;26.534;2024-03-22T01:36:36;15.77;;;8.50;;
10617;SDS011;5356;43.526;26.534;2024-03-22T01:39:02;14.57;;;6.75;;
10617;SDS011;5356;43.526;26.534;2024-03-22T01:41:27;13.50;;;7.30;;
10617;SDS011;5356;43.526;26.534;2024-03-22T01:43:53;13.98;;;7.07;;
10617;SDS011;5356;43.526;26.534;2024-03-22T01:46:18;12.23;;;6.97;;
10617;SDS011;5356;43.526;26.534;2024-03-22T01:48:44;13.73;;;7.72;;
10617;SDS011;5356;43.526;26.534;2024-03-22T01:51:09;12.07;;;7.45;;
10617;SDS011;5356;43.526;26.534;2024-03-22T01:53:35;16.30;;;8.25;;
10617;SDS011;5356;43.526;26.534;2024-03-22T01:56:03;12.38;;;8.30;;
10617;SDS011;5356;43.526;26.534;2024-03-22T01:58:28;13.88;;;8.52;;
10617;SDS011;5356;43.526;26.534;2024-03-22T02:00:54;17.02;;;8.60;;
10617;SDS011;5356;43.526;26.534;2024-03-22T02:03:20;13.27;;;7.93;;
10617;SDS011;5356;43.526;26.534;2024-03-22T02:05:46;15.80;;;7.55;;
10617;SDS011;5356;43.526;26.534;2024-03-22T02:08:12;16.95;;;8.38;;
10617;SDS011;5356;43.526;26.534;2024-03-22T02:10:37;15.32;;;7.97;;
10617;SDS011;5356;43.526;26.534;2024-03-22T02:13:03;15.35;;;8.45;;
10617;SDS011;5356;43.526;26.534;2024-03-22T02:15:28;16.98;;;8.90;;
10617;SDS011;5356;43.526;26.534;2024-03-22T02:17:54;18.48;;;9.07;;
10617;SDS011;5356;43.526;26.534;2024-03-22T02:20:20;15.90;;;9.27;;
10617;SDS011;5356;43.526;26.534;2024-03-22T02:22:46;17.63;;;8.38;;
10617;SDS011;5356;43.526;26.534;2024-03-22T02:25:11;18.92;;;8.43;;
10617;SDS011;5356;43.526;26.534;2024-03-22T02:27:37;16.50;;;8.55;;
10617;SDS011;5356;43.526;26.534;2024-03-22T02:30:04;20.02;;;9.23;;
10617;SDS011;5356;43.526;26.534;2024-03-22T02:32:30;13.75;;;7.40;;
10617;SDS011;5356;43.526;26.534;2024-03-22T02:34:55;12.85;;;7.93;;
10617;SDS011;5356;43.526;26.534;2024-03-22T02:37:21;18.80;;;9.45;;
10617;SDS011;5356;43.526;26.534;2024-03-22T02:39:46;20.55;;;10.18;;
10617;SDS011;5356;43.526;26.534;2024-03-22T02:42:12;13.15;;;8.07;;
10617;SDS011;5356;43.526;26.534;2024-03-22T02:44:37;12.80;;;7.18;;
10617;SDS011;5356;43.526;26.534;2024-03-22T02:47:07;11.45;;;6.97;;
10617;SDS011;5356;43.526;26.534;2024-03-22T02:49:37;12.55;;;6.25;;
10617;SDS011;5356;43.526;26.534;2024-03-22T02:52:03;11.93;;;5.95;;
10617;SDS011;5356;43.526;26.534;2024-03-22T02:54:29;12.82;;;6.93;;
10617;SDS011;5356;43.526;26.534;2024-03-22T02:56:54;13.25;;;6.35;;
10617;SDS011;5356;43.526;26.534;2024-03-22T02:59:20;14.27;;;7.47;;
10617;SDS011;5356;43.526;26.534;2024-03-22T03:01:45;10.60;;;5.82;;
10617;SDS011;5356;43.526;26.534;2024-03-22T03:04:11;12.68;;;6.35;;
10617;SDS011;5356;43.526;26.534;2024-03-22T03:06:36;10.45;;;5.97;;
10617;SDS011;5356;43.526;26.534;2024-03-22T03:09:02;10.35;;;6.30;;
10617;SDS011;5356;43.526;26.534;2024-03-22T03:11:29;9.50;;;5.78;;
10617;SDS011;5356;43.526;26.534;2024-03-22T03:13:55;11.68;;;6.80;;
10617;SDS011;5356;43.526;26.534;2024-03-22T03:16:20;13.52;;;7.40;;
10617;SDS011;5356;43.526;26.534;2024-03-22T03:18:46;14.63;;;7.10;;
10617;SDS011;5356;43.526;26.534;2024-03-22T03:21:11;10.82;;;6.80;;
10617;SDS011;5356;43.526;26.534;2024-03-22T03:23:37;13.40;;;6.43;;
10617;SDS011;5356;43.526;26.534;2024-03-22T03:26:02;10.70;;;6.32;;
10617;SDS011;5356;43.526;26.534;2024-03-22T03:28:28;10.73;;;6.25;;
10617;SDS011;5356;43.526;26.534;2024-03-22T03:30:53;11.25;;;6.03;;
10617;SDS011;5356;43.526;26.534;2024-03-22T03:33:19;13.00;;;6.97;;
10617;SDS011;5356;43.526;26.534;2024-03-22T03:35:47;15.00;;;7.43;;
10617;SDS011;5356;43.526;26.534;2024-03-22T03:38:13;14.55;;;6.38;;
10617;SDS011;5356;43.526;26.534;2024-03-22T03:40:39;13.05;;;6.72;;
10617;SDS011;5356;43.526;26.534;2024-03-22T03:43:04;10.63;;;6.07;;
10617;SDS011;5356;43.526;26.534;2024-03-22T03:45:30;11.05;;;5.53;;
10617;SDS011;5356;43.526;26.534;2024-03-22T03:47:55;9.57;;;6.00;;
10617;SDS011;5356;43.526;26.534;2024-03-22T03:50:21;10.27;;;5.68;;
10617;SDS011;5356;43.526;26.534;2024-03-22T03:52:47;10.98;;;5.10;;
10617;SDS011;5356;43.526;26.534;2024-03-22T03:55:12;9.10;;;4.88;;
10617;SDS011;5356;43.526;26.534;2024-03-22T03:57:39;12.48;;;6.07;;
10617;SDS011;5356;43.526;26.534;2024-03-22T04:00:05;9.05;;;5.78;;
10617;SDS011;5356;43.526;26.534;2024-03-22T04:02:33;9.93;;;5.90;;
10617;SDS011;5356;43.526;26.534;2024-03-22T04:04:59;10.55;;;6.00;;
10617;SDS011;5356;43.526;26.534;2024-03-22T04:07:25;10.57;;;6.15;;
10617;SDS011;5356;43.526;26.534;2024-03-22T04:09:50;9.43;;;5.88;;
10617;SDS011;5356;43.526;26.534;2024-03-22T04:12:16;12.88;;;6.68;;
10617;SDS011;5356;43.526;26.534;2024-03-22T04:14:41;13.02;;;6.90;;
10617;SDS011;5356;43.526;26.534;2024-03-22T04:17:07;13.35;;;6.57;;
10617;SDS011;5356;43.526;26.534;2024-03-22T04:19:32;11.48;;;6.40;;
10617;SDS011;5356;43.526;26.534;2024-03-22T04:21:58;9.90;;;5.78;;
10617;SDS011;5356;43.526;26.534;2024-03-22T04:24:23;15.32;;;6.65;;
10617;SDS011;5356;43.526;26.534;2024-03-22T04:26:49;19.13;;;10.13;;
10617;SDS011;5356;43.526;26.534;2024-03-22T04:29:14;13.90;;;5.90;;
10617;SDS011;5356;43.526;26.534;2024-03-22T04:31:40;14.57;;;7.45;;
10617;SDS011;5356;43.526;26.534;2024-03-22T04:34:05;24.25;;;12.48;;
10617;SDS011;5356;43.526;26.534;2024-03-22T04:36:32;18.00;;;11.23;;
10617;SDS011;5356;43.526;26.534;2024-03-22T04:38:58;23.95;;;12.73;;
10617;SDS011;5356;43.526;26.534;2024-03-22T04:41:24;15.73;;;8.75;;
10617;SDS011;5356;43.526;26.534;2024-03-22T04:43:52;11.15;;;6.82;;
10617;SDS011;5356;43.526;26.534;2024-03-22T04:46:18;14.15;;;7.60;;
10617;SDS011;5356;43.526;26.534;2024-03-22T04:48:43;14.27;;;7.43;;
10617;SDS011;5356;43.526;26.534;2024-03-22T04:51:09;11.65;;;6.90;;
10617;SDS011;5356;43.526;26.534;2024-03-22T04:53:34;14.55;;;7.00;;
10617;SDS011;5356;43.526;26.534;2024-03-22T04:55:59;17.98;;;8.63;;
10617;SDS011;5356;43.526;26.534;2024-03-22T04:58:25;14.13;;;7.85;;
10617;SDS011;5356;43.526;26.534;2024-03-22T05:00:56;12.00;;;6.68;;
10617;SDS011;5356;43.526;26.534;2024-03-22T05:03:22;15.73;;;7.88;;
10617;SDS011;5356;43.526;26.534;2024-03-22T05:05:49;19.30;;;8.48;;
10617;SDS011;5356;43.526;26.534;2024-03-22T05:08:15;19.85;;;8.80;;
10617;SDS011;5356;43.526;26.534;2024-03-22T05:10:41;67.95;;;20.92;;
10617;SDS011;5356;43.526;26.534;2024-03-22T05:13:07;44.35;;;18.30;;
10617;SDS011;5356;43.526;26.534;2024-03-22T05:15:32;32.80;;;15.13;;
10617;SDS011;5356;43.526;26.534;2024-03-22T05:17:58;31.17;;;15.05;;
10617;SDS011;5356;43.526;26.534;2024-03-22T05:20:24;25.52;;;13.10;;
10617;SDS011;5356;43.526;26.534;2024-03-22T05:22:50;22.58;;;10.70;;
10617;SDS011;5356;43.526;26.534;2024-03-22T05:25:15;21.80;;;12.90;;
10617;SDS011;5356;43.526;26.534;2024-03-22T05:27:41;15.73;;;9.90;;
10617;SDS011;5356;43.526;26.534;2024-03-22T05:30:08;17.92;;;9.80;;
10617;SDS011;5356;43.526;26.534;2024-03-22T05:32:34;16.20;;;8.43;;
10617;SDS011;5356;43.526;26.534;2024-03-22T05:35:00;14.77;;;8.00;;
10617;SDS011;5356;43.526;26.534;2024-03-22T05:37:25;12.52;;;7.57;;
10617;SDS011;5356;43.526;26.534;2024-03-22T05:39:51;13.93;;;8.15;;
10617;SDS011;5356;43.526;26.534;2024-03-22T05:42:17;18.75;;;12.20;;
10617;SDS011;5356;43.526;26.534;2024-03-22T05:44:43;15.73;;;9.52;;
10617;SDS011;5356;43.526;26.534;2024-03-22T05:47:12;19.08;;;10.05;;
10617;SDS011;5356;43.526;26.534;2024-03-22T05:49:38;13.18;;;6.90;;
10617;SDS011;5356;43.526;26.534;2024-03-22T05:52:03;15.95;;;8.15;;
10617;SDS011;5356;43.526;26.534;2024-03-22T05:54:29;14.07;;;7.88;;
10617;SDS011;5356;43.526;26.534;2024-03-22T05:56:55;12.63;;;6.68;;
10617;SDS011;5356;43.526;26.534;2024-03-22T05:59:20;19.25;;;8.38;;
10617;SDS011;5356;43.526;26.534;2024-03-22T06:01:46;14.98;;;7.25;;
10617;SDS011;5356;43.526;26.534;2024-03-22T06:04:11;12.43;;;7.20;;
10617;SDS011;5356;43.526;26.534;2024-03-22T06:06:36;16.30;;;8.23;;
10617;SDS011;5356;43.526;26.534;2024-03-22T06:09:03;16.75;;;8.57;;
10617;SDS011;5356;43.526;26.534;2024-03-22T06:11:32;13.45;;;7.40;;
10617;SDS011;5356;43.526;26.534;2024-03-22T06:13:57;14.48;;;7.43;;
10617;SDS011;5356;43.526;26.534;2024-03-22T06:16:23;11.93;;;6.80;;
10617;SDS011;5356;43.526;26.534;2024-03-22T06:18:48;23.85;;;13.85;;
10617;SDS011;5356;43.526;26.534;2024-03-22T06:21:14;10.95;;;6.85;;
10617;SDS011;5356;43.526;26.534;2024-03-22T06:23:48;17.17;;;8.30;;
10617;SDS011;5356;43.526;26.534;2024-03-22T06:26:14;12.50;;;6.97;;
10617;SDS011;5356;43.526;26.534;2024-03-22T06:28:40;13.00;;;7.18;;
10617;SDS011;5356;43.526;26.534;2024-03-22T06:31:05;9.88;;;6.40;;
10617;SDS011;5356;43.526;26.534;2024-03-22T06:33:31;14.88;;;8.30;;
10617;SDS011;5356;43.526;26.534;2024-03-22T06:35:57;11.13;;;6.35;;
10617;SDS011;5356;43.526;26.534;2024-03-22T06:38:22;15.18;;;7.90;;
10617;SDS011;5356;43.526;26.534;2024-03-22T06:40:47;16.95;;;7.80;;
10617;SDS011;5356;43.526;26.534;2024-03-22T06:43:13;17.02;;;8.35;;
10617;SDS011;5356;43.526;26.534;2024-03-22T06:45:38;15.93;;;8.68;;
10617;SDS011;5356;43.526;26.534;2024-03-22T06:48:04;15.07;;;8.27;;
10617;SDS011;5356;43.526;26.534;2024-03-22T06:50:29;21.58;;;12.38;;
10617;SDS011;5356;43.526;26.534;2024-03-22T06:52:55;18.83;;;8.90;;
10617;SDS011;5356;43.526;26.534;2024-03-22T06:55:20;15.07;;;8.30;;
10617;SDS011;5356;43.526;26.534;2024-03-22T06:57:47;18.02;;;8.70;;
10617;SDS011;5356;43.526;26.534;2024-03-22T07:00:14;19.77;;;9.77;;
10617;SDS011;5356;43.526;26.534;2024-03-22T07:02:40;16.10;;;9.00;;
10617;SDS011;5356;43.526;26.534;2024-03-22T07:05:06;26.27;;;10.02;;
10617;SDS011;5356;43.526;26.534;2024-03-22T07:07:32;14.73;;;8.88;;
10617;SDS011;5356;43.526;26.534;2024-03-22T07:09:58;15.07;;;8.23;;
10617;SDS011;5356;43.526;26.534;2024-03-22T07:12:23;15.98;;;9.77;;
10617;SDS011;5356;43.526;26.534;2024-03-22T07:14:49;16.90;;;9.85;;
10617;SDS011;5356;43.526;26.534;2024-03-22T07:17:14;14.93;;;8.73;;
10617;SDS011;5356;43.526;26.534;2024-03-22T07:19:40;15.25;;;8.65;;
10617;SDS011;5356;43.526;26.534;2024-03-22T07:22:05;15.68;;;8.68;;
10617;SDS011;5356;43.526;26.534;2024-03-22T07:24:32;16.65;;;9.18;;
10617;SDS011;5356;43.526;26.534;2024-03-22T07:26:57;15.07;;;8.45;;
10617;SDS011;5356;43.526;26.534;2024-03-22T07:29:22;19.67;;;9.98;;
10617;SDS011;5356;43.526;26.534;2024-03-22T07:31:48;15.93;;;9.20;;
10617;SDS011;5356;43.526;26.534;2024-03-22T07:34:13;15.50;;;8.80;;
10617;SDS011;5356;43.526;26.534;2024-03-22T07:36:39;16.48;;;8.23;;
10617;SDS011;5356;43.526;26.534;2024-03-22T07:39:05;15.27;;;9.07;;
10617;SDS011;5356;43.526;26.534;2024-03-22T07:41:34;24.42;;;10.07;;
10617;SDS011;5356;43.526;26.534;2024-03-22T07:44:00;13.43;;;7.72;;
10617;SDS011;5356;43.526;26.534;2024-03-22T07:46:26;13.48;;;8.02;;
10617;SDS011;5356;43.526;26.534;2024-03-22T07:48:52;12.52;;;7.18;;
10617;SDS011;5356;43.526;26.534;2024-03-22T07:51:18;12.07;;;7.00;;
10617;SDS011;5356;43.526;26.534;2024-03-22T07:53:44;10.60;;;7.05;;
10617;SDS011;5356;43.526;26.534;2024-03-22T07:56:10;11.15;;;6.22;;
10617;SDS011;5356;43.526;26.534;2024-03-22T07:58:36;11.48;;;6.07;;
10617;SDS011;5356;43.526;26.534;2024-03-22T08:01:01;9.90;;;6.20;;
10617;SDS011;5356;43.526;26.534;2024-03-22T08:03:27;9.90;;;6.28;;
10617;SDS011;5356;43.526;26.534;2024-03-22T08:05:52;11.73;;;6.20;;
10617;SDS011;5356;43.526;26.534;2024-03-22T08:08:18;15.02;;;7.53;;
10617;SDS011;5356;43.526;26.534;2024-03-22T08:10:43;16.48;;;8.63;;
10617;SDS011;5356;43.526;26.534;2024-03-22T08:13:09;18.55;;;8.63;;
10617;SDS011;5356;43.526;26.534;2024-03-22T08:15:35;20.50;;;9.20;;
10617;SDS011;5356;43.526;26.534;2024-03-22T08:18:00;12.07;;;7.40;;
10617;SDS011;5356;43.526;26.534;2024-03-22T08:20:26;14.05;;;7.63;;
10617;SDS011;5356;43.526;26.534;2024-03-22T08:22:51;15.10;;;7.35;;
10617;SDS011;5356;43.526;26.534;2024-03-22T08:25:17;11.77;;;7.03;;
10617;SDS011;5356;43.526;26.534;2024-03-22T08:27:43;15.05;;;7.93;;
10617;SDS011;5356;43.526;26.534;2024-03-22T08:30:09;11.68;;;6.72;;
10617;SDS011;5356;43.526;26.534;2024-03-22T08:32:35;15.93;;;7.45;;
10617;SDS011;5356;43.526;26.534;2024-03-22T08:35:02;14.02;;;7.45;;
10617;SDS011;5356;43.526;26.534;2024-03-22T08:37:29;12.30;;;6.68;;
10617;SDS011;5356;43.526;26.534;2024-03-22T08:39:54;11.80;;;6.72;;
10617;SDS011;5356;43.526;26.534;2024-03-22T08:42:20;15.63;;;8.90;;
10617;SDS011;5356;43.526;26.534;2024-03-22T08:44:45;10.57;;;6.15;;
10617;SDS011;5356;43.526;26.534;2024-03-22T08:47:11;11.15;;;6.15;;
10617;SDS011;5356;43.526;26.534;2024-03-22T08:49:36;10.07;;;7.07;;
10617;SDS011;5356;43.526;26.534;2024-03-22T08:52:02;10.18;;;6.75;;
10617;SDS011;5356;43.526;26.534;2024-03-22T08:54:27;11.13;;;5.95;;
10617;SDS011;5356;43.526;26.534;2024-03-22T08:56:53;12.00;;;6.20;;
10617;SDS011;5356;43.526;26.534;2024-03-22T08:59:18;8.82;;;6.00;;
10617;SDS011;5356;43.526;26.534;2024-03-22T09:01:44;10.52;;;6.40;;
10617;SDS011;5356;43.526;26.534;2024-03-22T09:04:09;16.55;;;6.68;;
10617;SDS011;5356;43.526;26.534;2024-03-22T09:06:35;12.75;;;6.72;;
10617;SDS011;5356;43.526;26.534;2024-03-22T09:09:00;16.10;;;6.85;;
10617;SDS011;5356;43.526;26.534;2024-03-22T09:11:26;10.68;;;7.00;;
10617;SDS011;5356;43.526;26.534;2024-03-22T09:13:52;13.60;;;7.00;;
10617;SDS011;5356;43.526;26.534;2024-03-22T09:16:19;9.73;;;6.30;;
10617;SDS011;5356;43.526;26.534;2024-03-22T09:18:48;15.27;;;7.82;;
10617;SDS011;5356;43.526;26.534;2024-03-22T09:21:13;12.07;;;6.97;;
10617;SDS011;5356;43.526;26.534;2024-03-22T09:23:39;13.07;;;7.15;;
10617;SDS011;5356;43.526;26.534;2024-03-22T09:26:04;13.85;;;7.72;;
10617;SDS011;5356;43.526;26.534;2024-03-22T09:28:30;12.45;;;7.03;;
10617;SDS011;5356;43.526;26.534;2024-03-22T09:30:56;8.70;;;5.28;;
10617;SDS011;5356;43.526;26.534;2024-03-22T09:33:22;10.98;;;6.22;;
10617;SDS011;5356;43.526;26.534;2024-03-22T09:35:47;9.40;;;5.88;;
10617;SDS011;5356;43.526;26.534;2024-03-22T09:38:12;12.82;;;6.88;;
10617;SDS011;5356;43.526;26.534;2024-03-22T09:40:40;10.48;;;5.53;;
10617;SDS011;5356;43.526;26.534;2024-03-22T09:43:06;11.60;;;6.28;;
10617;SDS011;5356;43.526;26.534;2024-03-22T09:45:33;10.75;;;6.43;;
10617;SDS011;5356;43.526;26.534;2024-03-22T09:47:59;9.23;;;5.80;;
10617;SDS011;5356;43.526;26.534;2024-03-22T09:50:25;12.80;;;8.18;;
10617;SDS011;5356;43.526;26.534;2024-03-22T09:52:54;10.98;;;6.18;;
10617;SDS011;5356;43.526;26.534;2024-03-22T09:55:22;12.57;;;5.80;;
10617;SDS011;5356;43.526;26.534;2024-03-22T09:57:48;10.10;;;6.15;;
10617;SDS011;5356;43.526;26.534;2024-03-22T10:00:15;10.82;;;5.43;;
10617;SDS011;5356;43.526;26.534;2024-03-22T10:02:45;8.95;;;5.78;;
10617;SDS011;5356;43.526;26.534;2024-03-22T10:05:11;15.45;;;5.28;;
10617;SDS011;5356;43.526;26.534;2024-03-22T10:07:37;13.60;;;7.80;;
10617;SDS011;5356;43.526;26.534;2024-03-22T10:10:02;8.52;;;5.30;;
10617;SDS011;5356;43.526;26.534;2024-03-22T10:12:28;10.82;;;5.35;;
10617;SDS011;5356;43.526;26.534;2024-03-22T10:14:54;7.95;;;5.00;;
10617;SDS011;5356;43.526;26.534;2024-03-22T10:17:19;8.85;;;5.68;;
10617;SDS011;5356;43.526;26.534;2024-03-22T10:19:45;10.55;;;5.22;;
10617;SDS011;5356;43.526;26.534;2024-03-22T10:22:11;7.93;;;5.75;;
10617;SDS011;5356;43.526;26.534;2024-03-22T10:24:36;9.25;;;5.43;;
10617;SDS011;5356;43.526;26.534;2024-03-22T10:27:02;9.05;;;5.30;;
10617;SDS011;5356;43.526;26.534;2024-03-22T10:29:27;10.13;;;6.07;;
10617;SDS011;5356;43.526;26.534;2024-03-22T10:31:53;7.97;;;5.22;;
10617;SDS011;5356;43.526;26.534;2024-03-22T10:34:21;9.43;;;5.43;;
10617;SDS011;5356;43.526;26.534;2024-03-22T10:36:47;10.23;;;6.38;;
10617;SDS011;5356;43.526;26.534;2024-03-22T10:39:15;9.52;;;5.55;;
10617;SDS011;5356;43.526;26.534;2024-03-22T10:41:44;10.32;;;5.82;;
10617;SDS011;5356;43.526;26.534;2024-03-22T10:44:11;10.48;;;5.45;;
10617;SDS011;5356;43.526;26.534;2024-03-22T10:46:37;18.75;;;5.03;;
10617;SDS011;5356;43.526;26.534;2024-03-22T10:49:03;7.22;;;4.25;;
10617;SDS011;5356;43.526;26.534;2024-03-22T10:51:31;10.82;;;7.00;;
10617;SDS011;5356;43.526;26.534;2024-03-22T10:53:59;7.55;;;4.53;;
10617;SDS011;5356;43.526;26.534;2024-03-22T10:56:28;6.93;;;4.80;;
10617;SDS011;5356;43.526;26.534;2024-03-22T10:58:55;8.15;;;4.53;;
10617;SDS011;5356;43.526;26.534;2024-03-22T11:01:24;7.50;;;5.00;;
10617;SDS011;5356;43.526;26.534;2024-03-22T11:03:50;10.88;;;5.63;;
10617;SDS011;5356;43.526;26.534;2024-03-22T11:06:19;11.27;;;5.35;;
10617;SDS011;5356;43.526;26.534;2024-03-22T11:08:51;5.43;;;4.03;;
10617;SDS011;5356;43.526;26.534;2024-03-22T11:11:17;7.72;;;4.63;;
10617;SDS011;5356;43.526;26.534;2024-03-22T11:13:46;13.88;;;5.25;;
10617;SDS011;5356;43.526;26.534;2024-03-22T11:16:12;9.48;;;5.80;;
10617;SDS011;5356;43.526;26.534;2024-03-22T11:18:39;11.35;;;5.45;;
10617;SDS011;5356;43.526;26.534;2024-03-22T11:21:04;8.80;;;4.70;;
10617;SDS011;5356;43.526;26.534;2024-03-22T11:23:32;7.45;;;4.07;;
10617;SDS011;5356;43.526;26.534;2024-03-22T11:25:58;8.55;;;5.35;;
10617;SDS011;5356;43.526;26.534;2024-03-22T11:28:24;10.98;;;5.60;;
10617;SDS011;5356;43.526;26.534;2024-03-22T11:30:49;7.35;;;5.10;;
10617;SDS011;5356;43.526;26.534;2024-03-22T11:33:15;7.47;;;4.82;;
10617;SDS011;5356;43.526;26.534;2024-03-22T11:35:40;7.72;;;4.25;;
10617;SDS011;5356;43.526;26.534;2024-03-22T11:38:06;7.57;;;4.22;;
10617;SDS011;5356;43.526;26.534;2024-03-22T11:40:31;5.75;;;3.33;;
10617;SDS011;5356;43.526;26.534;2024-03-22T11:42:58;5.90;;;4.20;;
10617;SDS011;5356;43.526;26.534;2024-03-22T11:45:27;10.48;;;4.70;;
10617;SDS011;5356;43.526;26.534;2024-03-22T11:47:53;7.88;;;4.68;;
10617;SDS011;5356;43.526;26.534;2024-03-22T11:50:19;7.45;;;4.20;;
10617;SDS011;5356;43.526;26.534;2024-03-22T11:52:44;12.65;;;5.93;;
10617;SDS011;5356;43.526;26.534;2024-03-22T11:55:14;7.70;;;4.97;;
10617;SDS011;5356;43.526;26.534;2024-03-22T11:57:39;8.73;;;4.57;;
10617;SDS011;5356;43.526;26.534;2024-03-22T12:00:06;6.93;;;4.50;;
10617;SDS011;5356;43.526;26.534;2024-03-22T12:02:35;5.55;;;3.95;;
10617;SDS011;5356;43.526;26.534;2024-03-22T12:05:01;7.95;;;4.68;;
10617;SDS011;5356;43.526;26.534;2024-03-22T12:07:28;6.32;;;4.10;;
10617;SDS011;5356;43.526;26.534;2024-03-22T12:09:53;6.35;;;3.75;;
10617;SDS011;5356;43.526;26.534;2024-03-22T12:12:20;5.68;;;3.60;;
10617;SDS011;5356;43.526;26.534;2024-03-22T12:14:47;8.10;;;5.03;;
10617;SDS011;5356;43.526;26.534;2024-03-22T12:17:12;8.95;;;5.07;;
10617;SDS011;5356;43.526;26.534;2024-03-22T12:19:38;8.85;;;5.18;;
10617;SDS011;5356;43.526;26.534;2024-03-22T12:22:03;8.77;;;5.10;;
10617;SDS011;5356;43.526;26.534;2024-03-22T12:24:31;6.93;;;4.80;;
10617;SDS011;5356;43.526;26.534;2024-03-22T12:26:57;8.13;;;4.47;;
10617;SDS011;5356;43.526;26.534;2024-03-22T12:29:22;8.95;;;5.60;;
10617;SDS011;5356;43.526;26.534;2024-03-22T12:31:48;6.05;;;4.22;;
10617;SDS011;5356;43.526;26.534;2024-03-22T12:34:14;9.75;;;4.80;;
10617;SDS011;5356;43.526;26.534;2024-03-22T12:36:39;5.78;;;3.67;;
10617;SDS011;5356;43.526;26.534;2024-03-22T12:39:05;10.60;;;5.45;;
10617;SDS011;5356;43.526;26.534;2024-03-22T12:41:31;9.73;;;5.07;;
10617;SDS011;5356;43.526;26.534;2024-03-22T12:43:58;15.75;;;5.88;;
10617;SDS011;5356;43.526;26.534;2024-03-22T12:46:24;11.60;;;6.32;;
10617;SDS011;5356;43.526;26.534;2024-03-22T12:48:50;9.52;;;4.50;;
10617;SDS011;5356;43.526;26.534;2024-03-22T12:51:16;11.00;;;5.30;;
10617;SDS011;5356;43.526;26.534;2024-03-22T12:53:42;8.88;;;4.82;;
10617;SDS011;5356;43.526;26.534;2024-03-22T12:56:07;6.68;;;4.53;;
10617;SDS011;5356;43.526;26.534;2024-03-22T12:58:33;5.97;;;4.30;;
10617;SDS011;5356;43.526;26.534;2024-03-22T13:00:59;6.13;;;3.95;;
10617;SDS011;5356;43.526;26.534;2024-03-22T13:03:26;9.55;;;5.25;;
10617;SDS011;5356;43.526;26.534;2024-03-22T13:05:52;8.05;;;4.88;;
10617;SDS011;5356;43.526;26.534;2024-03-22T13:08:17;7.72;;;4.18;;
10617;SDS011;5356;43.526;26.534;2024-03-22T13:10:44;12.20;;;5.20;;
10617;SDS011;5356;43.526;26.534;2024-03-22T13:13:10;7.68;;;4.20;;
10617;SDS011;5356;43.526;26.534;2024-03-22T13:15:36;7.75;;;4.20;;
10617;SDS011;5356;43.526;26.534;2024-03-22T13:18:05;6.03;;;4.03;;
10617;SDS011;5356;43.526;26.534;2024-03-22T13:20:30;20.63;;;6.97;;
10617;SDS011;5356;43.526;26.534;2024-03-22T13:22:56;16.25;;;5.70;;
10617;SDS011;5356;43.526;26.534;2024-03-22T13:25:22;12.30;;;5.55;;
10617;SDS011;5356;43.526;26.534;2024-03-22T13:27:47;12.32;;;5.60;;
10617;SDS011;5356;43.526;26.534;2024-03-22T13:30:13;8.85;;;5.15;;
10617;SDS011;5356;43.526;26.534;2024-03-22T13:32:39;12.48;;;6.28;;
10617;SDS011;5356;43.526;26.534;2024-03-22T13:35:05;9.93;;;5.35;;
10617;SDS011;5356;43.526;26.534;2024-03-22T13:37:32;8.07;;;5.00;;
10617;SDS011;5356;43.526;26.534;2024-03-22T13:39:57;7.95;;;4.45;;
10617;SDS011;5356;43.526;26.534;2024-03-22T13:42:24;6.65;;;4.20;;
10617;SDS011;5356;43.526;26.534;2024-03-22T13:44:50;5.88;;;4.00;;
10617;SDS011;5356;43.526;26.534;2024-03-22T13:47:16;8.27;;;4.00;;
10617;SDS011;5356;43.526;26.534;2024-03-22T13:49:42;7.20;;;4.30;;
10617;SDS011;5356;43.526;26.534;2024-03-22T13:52:08;5.93;;;3.88;;
10617;SDS011;5356;43.526;26.534;2024-03-22T13:54:34;5.50;;;3.63;;
10617;SDS011;5356;43.526;26.534;2024-03-22T13:57:00;8.75;;;4.43;;
10617;SDS011;5356;43.526;26.534;2024-03-22T13:59:26;6.47;;;4.18;;
10617;SDS011;5356;43.526;26.534;2024-03-22T14:01:52;7.20;;;4.22;;
10617;SDS011;5356;43.526;26.534;2024-03-22T14:04:18;9.35;;;4.95;;
10617;SDS011;5356;43.526;26.534;2024-03-22T14:06:46;7.00;;;4.63;;
10617;SDS011;5356;43.526;26.534;2024-03-22T14:09:12;8.30;;;5.00;;
10617;SDS011;5356;43.526;26.534;2024-03-22T14:11:41;6.72;;;4.60;;
10617;SDS011;5356;43.526;26.534;2024-03-22T14:14:11;23.17;;;5.67;;
10617;SDS011;5356;43.526;26.534;2024-03-22T14:16:37;19.85;;;6.75;;
10617;SDS011;5356;43.526;26.534;2024-03-22T14:19:03;9.52;;;5.15;;
10617;SDS011;5356;43.526;26.534;2024-03-22T14:21:28;8.15;;;5.03;;
10617;SDS011;5356;43.526;26.534;2024-03-22T14:23:54;10.90;;;5.20;;
10617;SDS011;5356;43.526;26.534;2024-03-22T14:26:20;5.22;;;3.70;;
10617;SDS011;5356;43.526;26.534;2024-03-22T14:28:46;6.38;;;4.50;;
10617;SDS011;5356;43.526;26.534;2024-03-22T14:31:12;5.93;;;3.72;;